Rugby, ND

7:40 AM CDT on August 17, 2017 (GMT -0500)
Rugby Municipal

Weather History for KRUG - January, 2014

Change the Weather History Date:

Sunday, January 19, 2014

  Actual Average Record
Temperature  
Mean Temperature 21 °F -  
Max Temperature 30 °F 17 °F 41 °F (1986)
Min Temperature 12 °F -3 °F -36 °F (1985)
Degree Days  
Heating Degree Days 44    
Moisture  
Dew Point 20 °F    
Average Humidity 93    
Maximum Humidity 100    
Minimum Humidity 86    
Precipitation  
Precipitation 0.13 in - - ()
Sea Level Pressure  
Sea Level Pressure 29.57 in    
Wind  
Wind Speed 10 mph (WNW)    
Max Wind Speed 25 mph    
Max Gust Speed 28 mph    
Visibility 9 miles    
Events Snow    
Averages and records for this station are not official NWS values.
T = Trace of Precipitation, MM = Missing Value Source: NWS Daily Summary

Daily Weather History Graph

Daily Weather History Graph

Search for Another Location

Airport or City:

Trip Planner

Search our weather history database for the weather conditions in past years. The results will help you decide how hot, cold, wet, or windy it might be!

Date:

Astronomy

Jan. 19, 2014 Rise Set
Actual Time 8:23 AM CST 5:18 PM CST
Civil Twilight 7:48 AM CST 5:53 PM CST
Nautical Twilight 7:09 AM CST 6:32 PM CST
Astronomical Twilight 6:32 AM CST 7:09 PM CST
Moon 9:19 PM CST (1/19) 9:35 AM CST (1/19)
Length of Visible Light 10h 05m
Length of Day
8h 55m
Waning Gibbous, 89% of the Moon is Illuminated
Jan 19
Waning Gibbous
Jan 23
Last Quarter
Jan 30
New
Feb 6
First Quarter
Feb 14
Full

Hourly Weather History & Observations

Time (CST) Temp. Windchill Dew Point Humidity Pressure Visibility Wind Dir Wind Speed Gust Speed Precip Events Conditions
12:15 AM 30.2 °F 18.1 °F 26.6 °F 86% 29.53 in 10.0 mi WNW 18.4 mph - N/A   Clear
12:35 AM 30.2 °F 18.5 °F 26.6 °F 86% 29.52 in 10.0 mi WNW 17.3 mph - N/A   Clear
12:55 AM 28.4 °F 18.5 °F 24.8 °F 86% 29.52 in 10.0 mi WNW 11.5 mph - N/A   Clear
1:15 AM 28.4 °F 17.5 °F 24.8 °F 86% 29.53 in 10.0 mi WNW 13.8 mph - N/A   Clear
1:35 AM 26.6 °F 18.2 °F 24.8 °F 93% 29.52 in 10.0 mi WNW 8.1 mph - N/A   Clear
1:55 AM 24.8 °F 13.4 °F 23.0 °F 93% 29.52 in 10.0 mi WNW 12.7 mph - N/A   Clear
2:15 AM 23.0 °F 11.7 °F 23.0 °F 100% 29.52 in 10.0 mi WNW 11.5 mph - N/A   Clear
2:35 AM 23.0 °F 13.1 °F 21.2 °F 93% 29.52 in 10.0 mi WNW 9.2 mph - N/A   Clear
2:55 AM 23.0 °F 12.4 °F 21.2 °F 93% 29.52 in 10.0 mi West 10.4 mph - N/A   Clear
3:15 AM 21.2 °F 10.1 °F 19.4 °F 93% 29.52 in 10.0 mi West 10.4 mph - N/A   Clear
3:35 AM 21.2 °F 10.9 °F 19.4 °F 93% 29.53 in 10.0 mi West 9.2 mph - N/A   Clear
3:55 AM 19.4 °F 14.3 °F 19.4 °F 100% 29.52 in 10.0 mi West 3.5 mph - N/A   Clear
4:15 AM 19.4 °F 11.5 °F 19.4 °F 100% 29.50 in 10.0 mi WSW 5.8 mph - N/A   Clear
4:35 AM 21.2 °F 12.6 °F 19.4 °F 93% 29.50 in 10.0 mi WSW 6.9 mph - N/A   Clear
4:55 AM 21.2 °F 14.9 °F 19.4 °F 93% 29.50 in 10.0 mi WNW 4.6 mph - N/A   Clear
5:15 AM 19.4 °F - 17.6 °F 93% 29.50 in 10.0 mi Calm Calm - N/A   Clear
5:35 AM 21.2 °F - 21.2 °F 100% 29.50 in 10.0 mi Calm Calm - N/A   Clear
5:55 AM 19.4 °F - 19.4 °F 100% 29.47 in 10.0 mi Calm Calm - N/A   Clear
6:15 AM 17.6 °F - 17.6 °F 100% 29.47 in 10.0 mi Calm Calm - N/A   Clear
6:35 AM 17.6 °F - 17.6 °F 100% 29.46 in 10.0 mi Calm Calm - N/A   Clear
6:55 AM 17.6 °F - 17.6 °F 100% 29.47 in 10.0 mi Calm Calm - N/A   Clear
7:15 AM 17.6 °F - 17.6 °F 100% 29.46 in 10.0 mi Calm Calm - N/A   Clear
7:35 AM 15.8 °F - 15.8 °F 100% 29.48 in 10.0 mi Calm Calm - N/A   Clear
7:55 AM 12.2 °F - 10.4 °F 92% 29.47 in 5.0 mi Calm Calm - N/A   Clear
8:15 AM 15.8 °F 10.2 °F 15.8 °F 100% 29.46 in 1.0 mi SSE 3.5 mph - N/A   Clear
8:35 AM 15.8 °F - 15.8 °F 100% 29.46 in 8.0 mi Calm Calm - N/A   Clear
8:55 AM 15.8 °F 8.6 °F 14.0 °F 93% 29.46 in 7.0 mi South 4.6 mph - N/A   Clear
9:15 AM 14.0 °F 6.5 °F 12.2 °F 93% 29.46 in 10.0 mi South 4.6 mph - N/A   Clear
9:35 AM 12.2 °F - 10.4 °F 92% 29.49 in 10.0 mi Calm Calm - N/A   Clear
9:55 AM 12.2 °F - 10.4 °F 92% 29.48 in 5.0 mi Calm Calm - N/A   Clear
10:15 AM 14.0 °F - 10.4 °F 86% 29.48 in 6.0 mi Calm Calm - N/A   Clear
10:35 AM 15.8 °F 7.2 °F 15.8 °F 100% 29.49 in 10.0 mi West 5.8 mph - N/A   Clear
10:55 AM 15.8 °F 8.6 °F 14.0 °F 93% 29.50 in 9.0 mi WNW 4.6 mph - N/A   Clear
11:15 AM 19.4 °F 10.4 °F 19.4 °F 100% 29.51 in 10.0 mi WNW 6.9 mph - N/A   Clear
11:35 AM 23.0 °F 10.1 °F 23.0 °F 100% 29.53 in 10.0 mi WNW 15.0 mph - N/A   Clear
11:55 AM 24.8 °F 11.1 °F 23.0 °F 93% 29.55 in 10.0 mi WNW 18.4 mph - N/A   Clear
12:15 PM 24.8 °F 11.1 °F 23.0 °F 93% 29.55 in 10.0 mi NW 18.4 mph 27.6 mph N/A   Clear
12:35 PM 24.8 °F 9.0 °F 23.0 °F 93% 29.55 in 10.0 mi NW 25.3 mph - N/A   Clear
12:55 PM 24.8 °F 9.3 °F 21.2 °F 86% 29.55 in 10.0 mi NW 24.2 mph - N/A   Clear
1:15 PM 24.8 °F 11.1 °F 21.2 °F 86% 29.56 in 10.0 mi NW 18.4 mph - N/A   Clear
1:35 PM 24.8 °F 11.5 °F 23.0 °F 93% 29.56 in 10.0 mi NW 17.3 mph - N/A   Clear
1:55 PM 24.8 °F 10.0 °F 23.0 °F 93% 29.57 in 10.0 mi NW 21.9 mph 25.3 mph N/A   Clear
2:15 PM 23.0 °F 8.7 °F 23.0 °F 100% 29.57 in 10.0 mi NW 18.4 mph - N/A   Clear
2:35 PM 23.0 °F 9.6 °F 23.0 °F 100% 29.57 in 10.0 mi NW 16.1 mph - N/A   Clear
2:55 PM 24.8 °F 14.0 °F 23.0 °F 93% 29.58 in 10.0 mi NW 11.5 mph - N/A   Clear
3:15 PM 24.8 °F 14.6 °F 23.0 °F 93% 29.57 in 10.0 mi NW 10.4 mph - N/A   Clear
3:35 PM 24.8 °F 14.6 °F 23.0 °F 93% 29.58 in 10.0 mi West 10.4 mph - N/A   Clear
3:55 PM 24.8 °F 15.3 °F 23.0 °F 93% 29.59 in 10.0 mi WNW 9.2 mph - N/A   Partly Cloudy
4:15 PM 24.8 °F 16.1 °F 23.0 °F 93% 29.59 in 10.0 mi WNW 8.1 mph - N/A   Mostly Cloudy
4:35 PM 23.0 °F 14.7 °F 23.0 °F 100% 29.60 in 10.0 mi West 6.9 mph - N/A   Mostly Cloudy
4:55 PM 23.0 °F 13.9 °F 21.2 °F 93% 29.61 in 10.0 mi West 8.1 mph - N/A   Partly Cloudy
5:15 PM 23.0 °F 13.1 °F 19.4 °F 86% 29.62 in 10.0 mi West 9.2 mph - N/A   Clear
5:35 PM 21.2 °F 10.9 °F 19.4 °F 93% 29.62 in 10.0 mi WNW 9.2 mph - N/A   Clear
5:55 PM 21.2 °F 9.5 °F 19.4 °F 93% 29.62 in 10.0 mi WNW 11.5 mph - N/A   Partly Cloudy
6:15 PM 21.2 °F 9.5 °F 19.4 °F 93% 29.62 in 10.0 mi West 11.5 mph - N/A   Clear
7:15 PM 28.4 °F 16.2 °F 24.8 °F 86% 29.65 in 10.0 mi NW 17.3 mph - N/A   Clear
7:35 PM 28.4 °F 15.4 °F 24.8 °F 86% 29.66 in 10.0 mi NW 19.6 mph - N/A   Partly Cloudy
7:55 PM 28.4 °F 15.8 °F 24.8 °F 86% 29.68 in 10.0 mi NW 18.4 mph - N/A   Mostly Cloudy
8:15 PM 26.6 °F 13.4 °F 23.0 °F 86% 29.69 in 10.0 mi NW 18.4 mph - N/A   Overcast
8:35 PM 26.6 °F 15.2 °F 23.0 °F 86% 29.70 in 10.0 mi NW 13.8 mph - N/A   Mostly Cloudy
8:55 PM 26.6 °F 14.7 °F 23.0 °F 86% 29.71 in 10.0 mi NW 15.0 mph - N/A   Mostly Cloudy
9:15 PM 26.6 °F 15.7 °F 23.0 °F 86% 29.71 in 10.0 mi NW 12.7 mph - N/A   Mostly Cloudy
9:35 PM 26.6 °F 16.8 °F 23.0 °F 86% 29.71 in 10.0 mi NNW 10.4 mph - N/A   Overcast
9:55 PM 26.6 °F 18.2 °F 23.0 °F 86% 29.72 in 10.0 mi NNW 8.1 mph - N/A   Overcast
10:15 PM 26.6 °F 21.2 °F 23.0 °F 86% 29.72 in 10.0 mi NNW 4.6 mph - N/A   Overcast
10:35 PM 23.0 °F - 21.2 °F 93% 29.73 in 9.0 mi Calm Calm - N/A   Overcast
10:55 PM 23.0 °F 14.7 °F 19.4 °F 86% 29.74 in 4.0 mi East 6.9 mph - 0.01 in Snow Light Snow
11:15 PM 19.4 °F 7.2 °F 19.4 °F 100% 29.75 in 1.8 mi East 11.5 mph - 0.07 in Snow Light Snow
11:35 PM 17.6 °F 3.7 °F 15.8 °F 93% 29.75 in 3.0 mi ENE 13.8 mph - 0.11 in Snow Light Snow
11:55 PM 14.0 °F -1.4 °F 12.2 °F 93% 29.77 in 5.0 mi ENE 15.0 mph - 0.12 in Snow Light Snow